Puerto Banus, Marbella

>

This is an optional block (switch it off / on) in the settings - file ($SITE['banners'] = false;)

You can display ads, any other important text or photo’s using text / html or PHP code.

You can place one or more at the top and or bottom and it can all be different for content / size .



Meteosat more information blitzortung!


Radar lluvias  rain snow radar


Visita nuestra red de sitios de meteo:

Documentation for the template used

MeteoibericaRed estaciones Meteorologicas

MeteoclimaticRed estaciones Meteorologicas



Temperatura alta Extrema Desde: 20-07-2018 11:00 Hasta: 19:59 Advertencias para: Temperatura alta Extrema Nivel: Amarillo info button

Informes METAR proximidad

   
EBAW - Antwerp
Actualización: 20-07-2018 19:50
lluvia, Parcialmente Nublado  
lluvia, Parcialmente Nublado  
   Viento: NW 13 km/h
Viento: NW 13 km/h
Temperatura: 22°C
Punto de rocío: 12°C
Humedad: 53%
Baromètro: 1012 hPa
Nublado: Parcialmente Nublado
Visibilidad: More than 10 km
detalles de la nube: Parcialmente Nublado
EBAW 201750Z 32007KT 9999 -RA NSC 22/12 Q1012 NOSIG
EBLG - Liège
Actualización: 20-07-2018 19:50
Claros  
Claros  
   Viento: NNW 13 km/h
Viento: NNW 13 km/h
Temperatura: 22°C
Punto de rocío: 9°C
Humedad: 44%
Baromètro: 1012 hPa
Visibilidad: More than 10 km
detalles de la nube: Claros
EBLG 201750Z 33007KT CAVOK 22/09 Q1012 NOSIG
EBCV - Mons/Bergen
Actualización: 20-07-2018 19:55
lluvia, Nublado  
lluvia, Nublado  
   Viento: varía 3.7 km/h
Viento: varía 3.7 km/h
Temperatura: 20°C
Punto de rocío: 14°C
Humedad: 69%
Baromètro: 1013 hPa
Nublado: Nublado
Visibilidad: More than 10 km
detalles de la nube: Nublado 7000 ft
EBCV 201755Z AUTO VRB02KT 9999 -RA OVC070/// 20/14 Q1013 BLU
EHBK - Maastricht
Actualización: 20-07-2018 19:55
Parcialmente Nublado  
Parcialmente Nublado  
   Viento: NW 11.1 km/h
Viento: NW 11.1 km/h
Temperatura: 25°C
Punto de rocío: 8°C
Humedad: 34%
Baromètro: 1011 hPa
Nublado: Parcialmente Nublado
Visibilidad: More than 10 km
detalles de la nube: Parcialmente Nublado
EHBK 201755Z AUTO 32006KT 9999 NSC 25/08 Q1011 NOSIG
ELLX - Luxemburg
Actualización: 20-07-2018 19:50
Nubes dispersas  
Nubes dispersas  
   Viento: West 14.8 km/h
Viento: West 14.8 km/h
Temperatura: 26°C
Punto de rocío: 13°C
Humedad: 45%
Baromètro: 1012 hPa
Nublado: Nubes dispersas
Visibilidad: More than 10 km
detalles de la nube: Nubes dispersas 5000 ft
ELLX 201750Z 28008KT 250V310 9999 FEW050CB 26/13 Q1012 NOSIG
EBOS - Oostende
Actualización: 20-07-2018 19:50
Claros  
Claros  
   Viento: NE 11.1 km/h
Viento: NE 11.1 km/h
Temperatura: 20°C
Punto de rocío: 10°C
Humedad: 53%
Baromètro: 1013 hPa
Visibilidad: More than 10 km
detalles de la nube: Claros
EBOS 201750Z 04006KT CAVOK 20/10 Q1013 NOSIG

Guión original por  Saratoga-weather.org Adaptado para la plantilla por  Weerstation Leuven

Usted encontrará nuestra información del tiempo también en:

Weather Underground

Iberian Peninsula Weather Network